Aviation Digital Data Service (ADDS)

Output produced by METARs form (2113 UTC 17 November 2018)
found at http://www.aviationweather.gov/metar/data/
 
METAR text: EPPO 172100Z 01003KT 5000 BR NSC M02/M02 Q1037
Conditions at: EPPO (POZNAN/LAWICA , PL) observed 2100 UTC 17 November 2018
Temperature: -2.0°C (28°F)
Dewpoint: -2.0°C (28°F) [RH = 100%]
Pressure (altimeter): 30.62 inches Hg (1037.0 mb)
Winds: from the N (10 degrees) at 3 MPH (3 knots; 1.5 m/s)
Visibility: 3 miles ( 5 km)
Ceiling: at least 12,000 feet AGL
Clouds: sky clear below 12,000 feet AGL
Weather: BR  (mist)

METAR text: EPPO 172030Z 08001KT 5000 BR NSC M03/M04 Q1037
Conditions at: EPPO (POZNAN/LAWICA , PL) observed 2030 UTC 17 November 2018
Temperature: -3.0°C (27°F)
Dewpoint: -4.0°C (25°F) [RH = 93%]
Pressure (altimeter): 30.62 inches Hg (1037.0 mb)
Winds: from the E (80 degrees) at 1 MPH (1 knots; 0.5 m/s)
Visibility: 3 miles ( 5 km)
Ceiling: at least 12,000 feet AGL
Clouds: sky clear below 12,000 feet AGL
Weather: BR  (mist)

Forecast for: EPPO (POZNAN/LAWICA , PL)
Text: TAF EPPO 171730Z 1718/1818 08007KT CAVOK
Forecast period: 1800 UTC 17 November 2018 to 0700 UTC 18 November 2018
Forecast type: FROM: standard forecast or significant change
Winds: from the E (80 degrees) at 8 MPH (7 knots; 3.6 m/s)
Visibility: 6 or more miles 10+ km)
Ceiling: unknown
Clouds: missing
Weather: NSW  (no significant weather)
Text: TEMPO 1722/1808 1400 BR
Forecast period: 2200 UTC 17 November 2018 to 0800 UTC 18 November 2018
Forecast type: TEMPORARY: The following changes expected for less than half the time period
Visibility: 0.87 miles (1.40 km)
Ceiling: unknown
Clouds: missing
Weather: BR  (mist)
Text: PROB40 1802/1807 0500 FZFG BKN002
Forecast period: 0200 to 0700 UTC 18 November 2018
Forecast type: PROBABLE: 40 percent likelihood of the following during this time
Visibility: 0.31 miles (0.50 km)
Ceiling: 200 feet AGL
Clouds: broken clouds at 200 feet AGL
Weather: FZFG  (freezing fog)
Text: BECMG 1807/1810 34010KT
Forecast period: 0700 to 1800 UTC 18 November 2018
Forecast type: BECOMING: Conditions expected to become as follows by 1000 UTC 18 November 2018
Winds: from the NNW (340 degrees) at 12 MPH (10 knots; 5.1 m/s)
Visibility: 6 or more miles 10+ km)
Ceiling: unknown
Clouds: missing
Weather: NSW  (no significant weather)
Text: TEMPO 1812/1818 2500 SHRASN BKN004 BKN011CB
Forecast period: 1200 to 1800 UTC 18 November 2018
Forecast type: TEMPORARY: The following changes expected for less than half the time period
Visibility: 1.55 miles (2.49 km)
Ceiling: 400 feet AGL
Clouds: broken clouds at 400 feet AGL
broken clouds at 1100 feet AGL
Weather: SHRA SHSN  (rain showers, snow showers)